createdAt,value
2023-02-28T00:00:42.698Z,35.63
2023-02-28T00:05:54.628Z,38.67
2023-02-28T00:10:57.991Z,33.55
2023-02-28T00:16:04.865Z,34.15
2023-02-28T00:21:09.022Z,32.78
2023-02-28T00:26:12.760Z,35.80
2023-02-28T00:31:17.634Z,33.63
2023-02-28T00:36:21.014Z,29.83
2023-02-28T00:41:24.404Z,33.55
2023-02-28T00:46:31.725Z,37.65
2023-02-28T00:51:35.180Z,40.30
2023-02-28T00:56:38.580Z,33.88
2023-02-28T01:01:43.810Z,33.05
2023-02-28T01:06:47.904Z,32.88
2023-02-28T01:11:53.438Z,36.20
2023-02-28T01:16:58.204Z,27.80
2023-02-28T01:22:03.723Z,29.30
2023-02-28T01:27:07.135Z,29.20
2023-02-28T01:32:12.478Z,27.50
2023-02-28T01:37:15.901Z,24.80
2023-02-28T01:42:19.321Z,27.80
2023-02-28T01:47:25.157Z,27.35
2023-02-28T01:52:29.687Z,25.42
2023-02-28T01:57:38.779Z,28.60
2023-02-28T02:02:45.229Z,33.88
2023-02-28T02:07:53.032Z,26.48
2023-02-28T02:13:19.436Z,27.70
2023-02-28T02:18:32.404Z,26.75
2023-02-28T02:24:07.133Z,26.50
2023-02-28T02:29:58.310Z,26.98
2023-02-28T02:35:14.862Z,31.80
2023-02-28T02:40:22.424Z,33.92
2023-02-28T02:45:36.789Z,30.02
2023-02-28T02:50:45.839Z,28.15
2023-02-28T02:55:55.411Z,30.75
2023-02-28T03:01:02.125Z,28.05
2023-02-28T03:06:07.950Z,36.05
2023-02-28T03:11:17.067Z,27.20
2023-02-28T03:16:39.818Z,32.53
2023-02-28T03:21:50.505Z,29.92
2023-02-28T03:27:01.637Z,33.13
2023-02-28T03:32:12.433Z,25.50
2023-02-28T03:37:22.092Z,29.52
2023-02-28T03:42:29.714Z,29.27
2023-02-28T03:47:39.698Z,29.00
2023-02-28T03:52:50.517Z,32.70
2023-02-28T03:58:02.467Z,30.30
2023-02-28T04:03:06.660Z,31.17
2023-02-28T04:08:11.446Z,30.10
2023-02-28T04:13:14.885Z,30.15
2023-02-28T04:18:18.256Z,26.83
2023-02-28T04:23:23.058Z,34.10
2023-02-28T04:28:26.677Z,30.20
2023-02-28T04:33:30.722Z,35.03
2023-02-28T04:38:37.698Z,29.63
2023-02-28T04:43:41.161Z,26.92
2023-02-28T04:48:45.374Z,28.20
2023-02-28T04:53:50.781Z,28.42
2023-02-28T04:58:54.256Z,23.92
2023-02-28T05:03:59.963Z,30.92
2023-02-28T05:09:04.836Z,22.48
2023-02-28T05:14:12.478Z,29.63
2023-02-28T05:19:15.961Z,30.23
2023-02-28T05:24:23.757Z,33.63
2023-02-28T05:29:27.503Z,33.33
2023-02-28T05:34:30.917Z,32.35
2023-02-28T05:39:35.744Z,38.03
2023-02-28T05:44:39.206Z,33.63
2023-02-28T05:49:42.657Z,34.00
2023-02-28T05:54:48.736Z,40.15
2023-02-28T05:59:52.140Z,36.75
2023-02-28T06:04:55.578Z,30.52
2023-02-28T06:10:00.338Z,29.67
2023-02-28T06:15:04.714Z,28.98
2023-02-28T06:20:10.318Z,24.45
2023-02-28T06:25:15.091Z,25.98
2023-02-28T06:30:18.952Z,26.95
2023-02-28T06:35:22.678Z,27.80
2023-02-28T06:40:27.728Z,25.90
2023-02-28T06:45:31.516Z,28.73
2023-02-28T06:50:35.221Z,24.23
2023-02-28T06:55:41.953Z,25.65
2023-02-28T07:00:46.260Z,27.27
2023-02-28T07:05:49.754Z,23.67
2023-02-28T07:10:55.643Z,27.15
2023-02-28T07:16:02.016Z,32.47
2023-02-28T07:21:06.207Z,19.17
2023-02-28T07:26:15.787Z,20.42
2023-02-28T07:31:20.314Z,21.75
2023-02-28T07:36:23.724Z,15.45
2023-02-28T07:41:28.928Z,17.65
2023-02-28T07:46:36.665Z,16.20
2023-02-28T07:51:40.762Z,10.77
2023-02-28T07:56:45.577Z,14.23
2023-02-28T08:01:51.319Z,16.23
2023-02-28T08:06:55.065Z,17.20
2023-02-28T08:12:01.730Z,19.50
2023-02-28T08:17:06.457Z,18.65
2023-02-28T08:22:09.884Z,15.48
2023-02-28T08:27:29.741Z,14.25
2023-02-28T08:32:34.904Z,15.70
2023-02-28T08:37:38.579Z,15.20
2023-02-28T08:42:43.368Z,16.38
2023-02-28T08:47:46.744Z,18.58
2023-02-28T08:52:50.407Z,15.35
2023-02-28T08:57:55.945Z,14.70
2023-02-28T09:02:59.692Z,16.40
2023-02-28T09:08:04.426Z,15.80
2023-02-28T09:13:10.079Z,17.83
2023-02-28T09:18:14.196Z,15.40
2023-02-28T09:23:17.656Z,8.27
2023-02-28T09:28:23.802Z,9.93
2023-02-28T09:33:28.520Z,13.82
2023-02-28T09:38:32.226Z,9.73
2023-02-28T09:43:42.059Z,9.05
2023-02-28T09:48:49.891Z,10.73
2023-02-28T09:53:56.734Z,13.25
2023-02-28T09:59:13.452Z,9.70
2023-02-28T10:04:29.975Z,10.60
2023-02-28T10:09:35.798Z,11.27
2023-02-28T10:14:43.523Z,11.27
2023-02-28T10:19:54.992Z,10.82
2023-02-28T10:25:05.076Z,9.65
2023-02-28T10:30:15.256Z,13.90
2023-02-28T10:35:20.743Z,11.55
2023-02-28T10:40:32.548Z,10.73
2023-02-28T10:45:38.281Z,9.23
2023-02-28T10:50:52.457Z,9.38
2023-02-28T10:56:01.936Z,9.27
2023-02-28T11:01:07.335Z,14.00
2023-02-28T11:06:17.635Z,9.90
2023-02-28T11:11:22.846Z,10.07
2023-02-28T11:16:36.607Z,9.10
2023-02-28T11:21:41.752Z,10.13
2023-02-28T11:26:47.876Z,15.82
2023-02-28T11:32:14.311Z,13.55
2023-02-28T11:37:19.964Z,9.32
2023-02-28T11:42:39.413Z,10.35
2023-02-28T11:47:50.645Z,10.95
2023-02-28T11:52:55.950Z,11.98
2023-02-28T11:58:17.321Z,13.27
2023-02-28T12:03:31.903Z,13.75
2023-02-28T12:08:51.813Z,16.35
2023-02-28T12:14:18.212Z,9.90
2023-02-28T12:19:27.850Z,10.65
2023-02-28T12:24:55.356Z,11.55
2023-02-28T12:30:03.461Z,10.93
2023-02-28T12:35:15.655Z,11.38
2023-02-28T12:40:23.213Z,10.95
2023-02-28T12:45:32.307Z,9.82
2023-02-28T12:50:37.839Z,16.23
2023-02-28T12:55:48.553Z,19.25
2023-02-28T13:01:12.079Z,17.42
2023-02-28T13:06:30.998Z,15.38
2023-02-28T13:11:40.056Z,15.30
2023-02-28T13:16:59.671Z,15.48
2023-02-28T13:22:05.190Z,19.77
2023-02-28T13:27:35.509Z,13.82
2023-02-28T13:32:43.837Z,13.60
2023-02-28T13:37:52.771Z,18.05
2023-02-28T13:42:56.268Z,15.80
2023-02-28T13:48:05.528Z,17.45
2023-02-28T13:53:39.981Z,16.70
2023-02-28T13:58:55.599Z,17.30
2023-02-28T14:04:24.789Z,19.27
2023-02-28T14:09:33.236Z,17.30
2023-02-28T14:14:56.407Z,14.50
2023-02-28T14:20:01.221Z,19.30
2023-02-28T14:25:18.412Z,23.60
2023-02-28T14:30:52.751Z,21.55
2023-02-28T14:41:18.328Z,20.50
2023-02-28T14:46:23.040Z,21.73
2023-02-28T14:51:27.560Z,23.77
2023-02-28T14:56:37.184Z,24.10
2023-02-28T15:01:40.659Z,19.40
2023-02-28T15:06:44.182Z,19.02
2023-02-28T15:11:51.801Z,22.70
2023-02-28T15:17:01.138Z,21.77
2023-02-28T15:22:09.613Z,21.80
2023-02-28T15:27:18.032Z,20.10
2023-02-28T15:32:28.328Z,21.27
2023-02-28T15:37:43.372Z,19.45
2023-02-28T15:43:06.027Z,17.80
2023-02-28T15:48:18.678Z,19.05
2023-02-28T15:53:25.214Z,20.73
2023-02-28T15:58:30.652Z,19.67
2023-02-28T16:03:47.001Z,18.83
2023-02-28T16:08:52.398Z,19.20
2023-02-28T16:13:57.545Z,15.20
2023-02-28T16:19:00.979Z,19.38
2023-02-28T16:24:04.484Z,20.48
2023-02-28T16:29:13.385Z,19.95
2023-02-28T16:34:16.816Z,18.65
2023-02-28T16:39:21.741Z,26.27
2023-02-28T16:44:30.403Z,23.45
2023-02-28T16:49:33.907Z,30.15
2023-02-28T16:54:37.495Z,22.25
2023-02-28T16:59:42.504Z,20.27
2023-02-28T17:04:46.920Z,21.27
2023-02-28T17:09:50.327Z,22.52
2023-02-28T17:14:55.389Z,23.27
2023-02-28T17:19:58.859Z,28.92
2023-02-28T17:25:02.232Z,31.02
2023-02-28T17:30:17.506Z,29.65
2023-02-28T17:35:21.370Z,37.75
2023-02-28T17:40:25.958Z,39.97
2023-02-28T17:45:30.740Z,33.42
2023-02-28T17:50:35.053Z,36.00
2023-02-28T17:55:38.925Z,38.85
2023-02-28T18:00:43.646Z,39.03
2023-02-28T18:05:47.097Z,45.35
2023-02-28T18:10:50.547Z,69.45
2023-02-28T18:15:55.403Z,56.88
2023-02-28T18:20:58.864Z,45.97
2023-02-28T18:26:02.351Z,47.95
2023-02-28T18:31:11.262Z,78.63
2023-02-28T18:36:14.801Z,68.10
2023-02-28T18:41:21.588Z,62.67
2023-02-28T18:46:26.462Z,54.53
2023-02-28T18:51:31.705Z,57.35
2023-02-28T18:56:35.153Z,54.67
2023-02-28T19:01:40.979Z,57.92
2023-02-28T19:06:44.434Z,53.63
2023-02-28T19:11:47.873Z,56.85
2023-02-28T19:16:53.032Z,60.50
2023-02-28T19:21:56.511Z,53.17
2023-02-28T19:26:59.960Z,57.05
2023-02-28T19:32:04.971Z,54.97
2023-02-28T19:37:08.631Z,57.70
2023-02-28T19:42:14.009Z,63.83
2023-02-28T19:47:18.938Z,61.90
2023-02-28T19:52:22.620Z,61.40
2023-02-28T19:57:26.313Z,79.43
2023-02-28T20:02:31.088Z,75.50
2023-02-28T20:07:34.862Z,73.35
2023-02-28T20:12:38.309Z,84.80
2023-02-28T20:17:43.234Z,139.25
2023-02-28T20:22:46.995Z,150.63
2023-02-28T20:27:50.375Z,112.97
2023-02-28T20:32:55.150Z,98.22
2023-02-28T20:37:58.874Z,89.75
2023-02-28T20:43:02.491Z,82.45
2023-02-28T20:48:07.372Z,73.07
2023-02-28T20:53:10.811Z,71.20
2023-02-28T20:58:14.208Z,66.50
2023-02-28T21:03:19.003Z,66.82
2023-02-28T21:08:22.411Z,65.60
2023-02-28T21:13:26.764Z,65.68
2023-02-28T21:18:31.535Z,60.78
2023-02-28T21:23:35.094Z,64.00
2023-02-28T21:28:44.387Z,77.45
2023-02-28T21:33:49.995Z,107.65
2023-02-28T21:38:57.605Z,99.30
2023-02-28T21:44:01.288Z,89.57
2023-02-28T21:49:06.154Z,96.40
2023-02-28T21:54:10.902Z,95.20
2023-02-28T21:59:14.415Z,83.65
2023-02-28T22:04:22.486Z,70.68
2023-02-28T22:09:26.415Z,75.97
2023-02-28T22:14:29.934Z,72.00
2023-02-28T22:19:36.091Z,67.35
2023-02-28T22:24:41.065Z,70.70
2023-02-28T22:29:44.474Z,70.22
2023-02-28T22:34:51.635Z,68.05
2023-02-28T22:39:55.011Z,70.47
2023-02-28T22:44:58.347Z,65.50
2023-02-28T22:50:03.097Z,68.85
2023-02-28T22:55:07.765Z,79.35
2023-02-28T23:00:15.486Z,87.97
2023-02-28T23:05:20.468Z,120.07
2023-02-28T23:10:23.913Z,124.35
2023-02-28T23:15:27.535Z,105.03
2023-02-28T23:20:32.321Z,101.22
2023-02-28T23:25:43.522Z,90.45
2023-02-28T23:30:46.905Z,91.45
2023-02-28T23:35:51.970Z,84.35
2023-02-28T23:40:55.708Z,83.30
2023-02-28T23:45:59.314Z,68.40
2023-02-28T23:51:08.620Z,61.20
2023-02-28T23:56:14.769Z,69.45
